Springfield Beckley Municipal Airport
KSGH : rendu visible

Aérodrome :











RETROUVEZ-NOUS SUR...

 
LOGIN :

S'inscrire | Disclaimer

   EN    FR    IT 

 









Légende :    VFR   VFR Marginal   IFR   IFR Intensif   IFR Très Intensif
Visi : 
Plafond : 
>= 8 km
>= 3000ft
5 à 8 km
1000 à 3000 ft
1500m à 5 km
500 à 1000 ft
800 à 1500m
200 à 500 ft
< 800m
< 200 ft
Symboles :   Orages  Brouillard  Fortes neiges  Fortes précipitations  Vent > 20 kt






- Altitude de l'aérodrome : 1051 ft


KSGH - Springfield Beckley Municipal

DERNIER METAR :
  • 191456Z AUTO 24004KT 10SM BKN023 04/02 A2982 RMK AO2 SLP105 6//// T00440017 51010 PNO $

METARs EXPIRÉS :
  • 191427Z AUTO 27003KT 10SM SCT010 BKN025 04/02 A2982 RMK AO2 PNO $
  • 191409Z AUTO 00000KT 9SM BKN010 BKN027 04/03 A2982 RMK AO2 CIG 007V012 PNO $
  • 191356Z AUTO 25003KT 8SM SCT010 OVC027 04/03 A2981 RMK AO2 SLP105 T00390028 PNO $
  • 191336Z AUTO 24004KT 7SM FEW008 OVC027 04/03 A2981 RMK AO2 PNO $

TAF N/A



MET'MAP, la Météo Aéronautique d'un coup d'oeil ! - Copyright ORBIFLY Décembre 2007 - Disclaimer

ORBIFLY MET'MAP TEAM :

Programmation & Développement : Alexandra Zaïnal
Conception & Développement : Baudouin d'Aumeries
Co-Programmation & Développement : Marc-Olivier Méhu
Soutien technique & logistique : Manuel Goepfert

Contact : metmap@orbifly.com




SOURCES & CREDITS :

   NOAA       Earth
Advisory